Time;durP1;ratioP1;P1;durP2;ratioP2;P2;SDS_P1;SDS_P2;PMS_P1;PMS_P2;Temp;Humidity;BMP_temperature;BMP_pressure;BME280_temperature;BME280_humidity;BME280_pressure;Samples;Min_cycle;Max_cycle;Signal;HPM_P1;HPM_P2
2022/04/20 00:01:16;;;;;;;13.57;5.28;;;8.70;99.90;;;;;;5050766;28;20061;-74
2022/04/20 00:03:41;;;;;;;9.18;5.13;;;8.70;99.90;;;;;;5052657;28;20427;-78
2022/04/20 00:06:07;;;;;;;12.43;5.20;;;8.60;99.90;;;;;;5055957;28;20435;-74
2022/04/20 00:08:33;;;;;;;10.50;5.20;;;8.70;99.90;;;;;;5056086;28;20387;-75
2022/04/20 00:11:02;;;;;;;8.25;6.00;;;8.60;99.90;;;;;;5056385;28;20014;-73
2022/04/20 00:13:28;;;;;;;10.85;5.43;;;8.60;99.90;;;;;;5056044;28;20025;-74
2022/04/20 00:15:54;;;;;;;7.15;4.55;;;8.50;99.90;;;;;;5055933;28;20029;-74
2022/04/20 00:18:19;;;;;;;12.38;5.00;;;8.50;99.90;;;;;;5056114;28;20043;-73
2022/04/20 00:20:45;;;;;;;8.98;4.90;;;8.50;99.90;;;;;;5038748;28;20025;-74
2022/04/20 00:23:10;;;;;;;8.82;5.10;;;8.50;99.90;;;;;;5055679;28;20498;-72
2022/04/20 00:25:36;;;;;;;9.18;5.03;;;8.50;99.90;;;;;;5056471;28;20024;-73
2022/04/20 00:28:02;;;;;;;9.07;5.03;;;8.40;99.90;;;;;;5056091;28;20021;-73
2022/04/20 00:30:27;;;;;;;10.35;5.45;;;8.50;99.90;;;;;;5038214;28;20024;-73
2022/04/20 00:32:53;;;;;;;6.53;4.40;;;8.50;99.90;;;;;;5056408;28;20021;-73
2022/04/20 00:35:18;;;;;;;9.55;5.15;;;8.40;99.90;;;;;;5056383;28;20474;-74
2022/04/20 00:37:45;;;;;;;9.82;5.65;;;8.30;99.90;;;;;;5056436;28;20025;-73
2022/04/20 00:40:11;;;;;;;7.85;4.90;;;8.30;99.90;;;;;;5056460;28;20028;-73
2022/04/20 00:42:40;;;;;;;9.75;5.00;;;8.30;99.90;;;;;;5056490;28;20098;-73
2022/04/20 00:45:07;;;;;;;10.13;4.95;;;8.30;99.90;;;;;;5039283;28;20066;-74
2022/04/20 00:47:36;;;;;;;7.70;5.40;;;8.20;99.90;;;;;;5064108;28;20029;-72
2022/04/20 00:50:03;;;;;;;11.60;5.78;;;8.20;99.90;;;;;;5041106;28;20021;-74
2022/04/20 00:52:28;;;;;;;7.38;4.85;;;8.10;99.90;;;;;;5055531;28;20025;-73
2022/04/20 00:54:54;;;;;;;10.65;5.07;;;8.10;99.90;;;;;;5055724;28;20039;-73
2022/04/20 00:57:19;;;;;;;9.00;5.72;;;8.00;99.90;;;;;;5055626;28;20036;-73
2022/04/20 00:59:47;;;;;;;10.88;5.82;;;8.00;99.90;;;;;;5037483;28;20564;-74
2022/04/20 01:02:13;;;;;;;10.95;5.70;;;7.90;99.90;;;;;;5055818;28;20103;-74
2022/04/20 01:04:39;;;;;;;9.65;5.80;;;7.90;99.90;;;;;;5036690;28;20445;-74
2022/04/20 01:07:15;;;;;;;8.30;5.60;;;7.80;99.90;;;;;;5053932;28;20101;-73
2022/04/20 01:09:41;;;;;;;11.60;5.53;;;7.80;99.90;;;;;;5054485;28;20107;-73
2022/04/20 01:12:08;;;;;;;6.75;4.72;;;7.70;99.90;;;;;;5036151;28;20108;-75
2022/04/20 01:14:35;;;;;;;11.52;5.15;;;7.70;99.90;;;;;;5036110;28;20071;-74
2022/04/20 01:17:01;;;;;;;10.25;5.68;;;7.60;99.90;;;;;;5055510;28;20091;-72
2022/04/20 01:19:40;;;;;;;10.80;5.40;;;7.60;99.90;;;;;;5055464;28;20035;-73
2022/04/20 01:22:07;;;;;;;11.35;5.40;;;7.60;99.90;;;;;;5054994;28;20052;-74
2022/04/20 01:24:36;;;;;;;8.90;4.93;;;7.60;99.90;;;;;;5055055;28;20028;-73
2022/04/20 01:27:02;;;;;;;9.02;5.68;;;7.60;99.90;;;;;;5054894;28;20025;-74
2022/04/20 01:29:29;;;;;;;9.60;4.97;;;7.50;99.90;;;;;;5055203;28;20109;-73
2022/04/20 01:31:55;;;;;;;14.65;6.50;;;7.50;99.90;;;;;;5055375;28;20104;-73
2022/04/20 01:34:21;;;;;;;10.20;5.68;;;7.50;99.90;;;;;;5036991;28;20033;-75
2022/04/20 01:36:47;;;;;;;10.45;5.30;;;7.40;99.90;;;;;;5054838;28;20431;-74
2022/04/20 01:39:13;;;;;;;9.52;5.78;;;7.40;99.90;;;;;;5055352;28;20029;-74
2022/04/20 01:41:39;;;;;;;11.77;5.60;;;7.40;99.90;;;;;;5036968;28;20029;-74
2022/04/20 01:44:04;;;;;;;8.82;4.53;;;7.40;99.90;;;;;;5054800;28;20501;-74
2022/04/20 01:46:30;;;;;;;10.20;5.20;;;7.40;99.90;;;;;;5054708;28;20025;-74
2022/04/20 01:48:56;;;;;;;11.38;5.78;;;7.40;99.90;;;;;;5054783;28;20025;-75
2022/04/20 01:54:05;;;;;;;13.65;5.93;;;7.40;99.90;;;;;;5055112;28;20032;-73
2022/04/20 01:56:31;;;;;;;13.02;5.53;;;7.30;99.90;;;;;;5057164;28;20025;-74
2022/04/20 01:58:57;;;;;;;7.70;5.18;;;7.40;99.90;;;;;;5059144;28;20086;-74
2022/04/20 02:04:07;;;;;;;8.25;5.38;;;7.30;99.90;;;;;;5055706;28;20035;-73
2022/04/20 02:06:33;;;;;;;10.48;6.03;;;7.30;99.90;;;;;;5056211;28;20422;-73
2022/04/20 02:08:58;;;;;;;12.63;6.05;;;7.30;99.90;;;;;;5057264;28;20025;-73
2022/04/20 02:11:24;;;;;;;9.82;5.22;;;7.20;99.90;;;;;;5059955;28;20054;-73
2022/04/20 02:13:50;;;;;;;12.90;5.78;;;7.20;99.90;;;;;;5037263;28;20111;-74
2022/04/20 02:16:15;;;;;;;11.10;6.07;;;7.20;99.90;;;;;;5054740;28;20048;-73
2022/04/20 02:18:41;;;;;;;10.98;5.65;;;7.30;99.90;;;;;;5054114;28;20468;-74
2022/04/20 02:21:06;;;;;;;12.88;5.70;;;7.20;99.90;;;;;;5036456;28;20025;-74
2022/04/20 02:23:32;;;;;;;10.63;5.82;;;7.20;99.90;;;;;;5035768;28;20140;-73
2022/04/20 02:25:57;;;;;;;10.95;5.38;;;7.20;99.90;;;;;;5053491;28;20109;-74
2022/04/20 02:28:23;;;;;;;11.65;5.95;;;7.10;99.90;;;;;;5053251;28;20368;-73
2022/04/20 02:30:48;;;;;;;7.97;5.30;;;7.10;99.90;;;;;;5053833;28;20142;-74
2022/04/20 02:33:14;;;;;;;10.93;5.65;;;7.10;99.90;;;;;;5053962;28;20044;-74
2022/04/20 02:35:40;;;;;;;10.45;5.65;;;7.00;99.90;;;;;;5053867;28;20416;-74
2022/04/20 02:38:10;;;;;;;10.18;5.90;;;7.00;99.90;;;;;;5053956;28;20032;-74
2022/04/20 02:40:40;;;;;;;9.10;5.40;;;6.90;99.90;;;;;;5054033;28;20033;-74
2022/04/20 02:43:06;;;;;;;8.50;5.72;;;6.90;99.90;;;;;;5054634;28;20036;-77
2022/04/20 02:45:31;;;;;;;12.35;5.55;;;6.90;99.90;;;;;;5053959;28;20108;-77
2022/04/20 02:47:57;;;;;;;11.43;6.75;;;6.90;99.90;;;;;;5053992;28;20421;-76
2022/04/20 02:50:22;;;;;;;11.68;6.38;;;6.90;99.90;;;;;;5054469;28;20029;-77
2022/04/20 02:52:48;;;;;;;11.85;5.93;;;6.90;99.90;;;;;;5054467;28;20052;-77
2022/04/20 02:55:13;;;;;;;12.68;6.55;;;6.80;99.90;;;;;;5036402;28;20147;-77
2022/04/20 02:57:39;;;;;;;13.95;6.72;;;6.80;99.90;;;;;;5054253;28;20463;-76
2022/04/20 03:00:06;;;;;;;9.48;6.07;;;6.80;99.90;;;;;;5036055;28;20017;-76
2022/04/20 03:02:31;;;;;;;12.13;6.85;;;6.70;99.90;;;;;;5053784;28;20025;-76
2022/04/20 03:04:57;;;;;;;9.77;6.32;;;6.70;99.90;;;;;;5035711;28;20078;-76
2022/04/20 03:07:23;;;;;;;11.23;6.55;;;6.70;99.90;;;;;;5053686;28;20021;-76
2022/04/20 03:09:49;;;;;;;13.90;6.43;;;6.70;99.90;;;;;;5035883;28;20116;-76
2022/04/20 03:12:14;;;;;;;10.43;6.43;;;6.70;99.90;;;;;;5058776;28;20025;-76
2022/04/20 03:14:40;;;;;;;9.98;6.32;;;6.70;99.90;;;;;;5068281;28;20059;-76
2022/04/20 03:17:06;;;;;;;23.55;7.35;;;6.80;99.90;;;;;;5053862;28;20021;-77
2022/04/20 03:19:31;;;;;;;13.07;6.90;;;6.80;99.90;;;;;;5054335;28;20057;-76
2022/04/20 03:21:57;;;;;;;11.68;6.50;;;6.80;99.90;;;;;;5053902;28;20195;-76
2022/04/20 03:24:22;;;;;;;10.68;6.30;;;6.70;99.90;;;;;;5053958;28;20028;-76
2022/04/20 03:26:48;;;;;;;11.93;6.50;;;6.60;99.90;;;;;;5053929;28;20032;-75
2022/04/20 03:29:14;;;;;;;10.57;6.25;;;6.60;99.90;;;;;;5053945;28;20371;-75
2022/04/20 03:31:39;;;;;;;11.70;5.78;;;6.40;99.90;;;;;;5053886;28;20025;-75
2022/04/20 03:34:05;;;;;;;10.70;7.10;;;6.40;99.90;;;;;;5053319;28;20032;-76
2022/04/20 03:36:31;;;;;;;9.07;6.45;;;6.20;99.90;;;;;;5053295;28;20099;-75
2022/04/20 03:38:56;;;;;;;14.20;6.63;;;6.30;99.90;;;;;;5055726;28;20029;-75
2022/04/20 03:41:22;;;;;;;12.75;7.03;;;6.20;99.90;;;;;;5057591;28;20100;-75
2022/04/20 03:43:51;;;;;;;13.15;7.07;;;6.20;99.90;;;;;;5057049;28;20036;-76
2022/04/20 03:46:16;;;;;;;13.65;6.50;;;6.20;99.90;;;;;;5057182;28;20104;-76
2022/04/20 03:48:42;;;;;;;11.07;6.88;;;6.20;99.90;;;;;;5039306;28;20470;-79
2022/04/20 03:51:08;;;;;;;11.48;6.47;;;6.20;99.90;;;;;;5039208;28;20021;-76
2022/04/20 03:53:33;;;;;;;13.82;7.15;;;6.10;99.90;;;;;;5057474;28;20032;-76
2022/04/20 03:55:59;;;;;;;12.30;6.45;;;6.20;99.90;;;;;;5039900;28;20463;-76
2022/04/20 03:58:24;;;;;;;14.93;8.20;;;6.10;99.90;;;;;;5039529;28;20021;-75
2022/04/20 04:00:51;;;;;;;13.98;7.45;;;6.10;99.90;;;;;;5057538;28;20388;-76
2022/04/20 04:03:20;;;;;;;13.75;7.47;;;6.00;99.90;;;;;;5057128;28;20039;-76
2022/04/20 04:05:45;;;;;;;10.05;6.32;;;6.00;99.90;;;;;;5057407;28;20096;-76
2022/04/20 04:08:11;;;;;;;11.70;6.88;;;6.00;99.90;;;;;;5039195;28;20118;-76
2022/04/20 04:10:37;;;;;;;11.13;7.63;;;6.00;99.90;;;;;;5056715;28;20037;-76
2022/04/20 04:13:02;;;;;;;10.93;7.22;;;6.00;99.90;;;;;;5038821;28;20048;-76
2022/04/20 04:15:28;;;;;;;14.10;7.70;;;5.90;99.90;;;;;;5057510;28;20055;-76
2022/04/20 04:17:58;;;;;;;13.05;8.23;;;5.90;99.90;;;;;;5056726;28;20474;-76
2022/04/20 04:20:27;;;;;;;12.73;8.18;;;5.80;99.90;;;;;;5057225;28;20021;-76
2022/04/20 04:22:53;;;;;;;13.15;7.93;;;5.80;99.90;;;;;;5057263;28;20029;-76
2022/04/20 04:25:19;;;;;;;15.35;8.27;;;5.90;99.90;;;;;;5060402;28;20024;-76
2022/04/20 04:27:45;;;;;;;13.98;7.78;;;5.80;99.90;;;;;;5050280;28;20025;-75
2022/04/20 04:30:11;;;;;;;21.08;8.98;;;5.80;99.90;;;;;;5057368;28;20028;-76
2022/04/20 04:32:37;;;;;;;13.45;8.85;;;5.80;99.90;;;;;;5057471;28;20021;-76
2022/04/20 04:35:03;;;;;;;15.25;8.27;;;5.80;99.90;;;;;;5057485;28;20025;-76
2022/04/20 04:37:29;;;;;;;15.63;8.45;;;5.80;99.90;;;;;;5039509;28;20025;-74
2022/04/20 04:39:55;;;;;;;14.23;8.27;;;5.80;99.90;;;;;;5057115;28;20055;-74
2022/04/20 04:42:20;;;;;;;18.50;9.65;;;5.80;99.90;;;;;;5058016;28;20028;-75
2022/04/20 04:44:46;;;;;;;20.20;9.00;;;5.80;99.90;;;;;;5058875;28;20069;-75
2022/04/20 04:49:59;;;;;;;15.93;8.68;;;5.90;99.90;;;;;;5029080;28;20044;-75
2022/04/20 04:52:24;;;;;;;17.38;10.05;;;5.90;99.90;;;;;;5075121;28;20387;-74
2022/04/20 04:54:50;;;;;;;15.52;8.68;;;6.00;99.90;;;;;;5060664;28;20036;-74
2022/04/20 04:57:15;;;;;;;14.43;8.95;;;6.00;99.90;;;;;;5065202;28;20040;-74
2022/04/20 04:59:42;;;;;;;17.50;9.07;;;6.00;99.90;;;;;;5057624;28;20031;-75
2022/04/20 05:02:09;;;;;;;16.83;10.20;;;5.90;99.90;;;;;;5038521;28;20029;-75
2022/04/20 05:04:35;;;;;;;19.38;9.95;;;5.90;99.90;;;;;;5038523;28;20029;-75
2022/04/20 05:07:01;;;;;;;15.63;10.02;;;5.90;99.90;;;;;;5056792;28;20117;-75
2022/04/20 05:09:27;;;;;;;19.38;9.85;;;6.00;99.90;;;;;;5056487;28;20053;-75
2022/04/20 05:11:52;;;;;;;20.25;10.32;;;6.00;99.90;;;;;;5037981;28;20518;-74
2022/04/20 05:14:18;;;;;;;18.42;10.27;;;6.00;99.90;;;;;;5055944;28;20099;-74
2022/04/20 05:16:44;;;;;;;19.63;10.13;;;6.10;99.90;;;;;;5055473;28;20102;-75
2022/04/20 05:19:10;;;;;;;19.25;9.90;;;6.00;99.90;;;;;;5055600;28;20044;-75
2022/04/20 05:21:36;;;;;;;27.15;9.85;;;6.00;99.90;;;;;;5055113;28;20021;-74
2022/04/20 05:24:02;;;;;;;21.88;11.18;;;6.00;99.90;;;;;;5055025;28;20039;-75
2022/04/20 05:26:27;;;;;;;22.83;11.23;;;6.00;99.90;;;;;;5055087;28;20028;-74
2022/04/20 05:28:53;;;;;;;18.70;10.40;;;6.00;99.90;;;;;;5055412;28;20526;-74
2022/04/20 05:31:19;;;;;;;20.13;9.77;;;6.10;99.90;;;;;;5037180;28;20359;-74
2022/04/20 05:33:45;;;;;;;25.30;11.10;;;6.10;99.90;;;;;;5054708;28;20021;-74
2022/04/20 05:36:12;;;;;;;24.42;10.57;;;6.10;99.90;;;;;;5036814;28;20025;-74
2022/04/20 05:41:40;;;;;;;28.30;11.15;;;6.10;99.90;;;;;;5063202;28;20427;-73
2022/04/20 05:44:10;;;;;;;18.98;10.68;;;6.20;99.90;;;;;;5055432;28;20025;-73
2022/04/20 05:46:37;;;;;;;23.02;11.07;;;6.20;99.90;;;;;;5054649;28;20057;-73
2022/04/20 05:49:03;;;;;;;20.90;11.02;;;6.30;99.90;;;;;;5054863;28;20031;-73
2022/04/20 05:51:29;;;;;;;20.02;11.35;;;6.40;99.90;;;;;;5053928;28;20031;-73
2022/04/20 05:53:54;;;;;;;23.90;11.90;;;6.50;99.90;;;;;;5054689;28;20413;-73
2022/04/20 05:56:20;;;;;;;18.83;11.52;;;6.60;99.90;;;;;;5054901;28;20025;-73
2022/04/20 05:58:47;;;;;;;18.88;10.68;;;6.70;99.90;;;;;;5054416;28;20083;-73
2022/04/20 06:01:14;;;;;;;21.58;11.35;;;6.70;99.90;;;;;;5054344;28;20051;-73
2022/04/20 06:03:40;;;;;;;18.80;10.05;;;6.80;99.90;;;;;;5054445;28;20029;-74
2022/04/20 06:06:05;;;;;;;19.90;10.27;;;6.90;99.90;;;;;;5054760;28;20128;-73
2022/04/20 06:08:31;;;;;;;17.38;10.02;;;7.00;99.90;;;;;;5054817;28;20013;-73
2022/04/20 06:10:58;;;;;;;21.55;10.20;;;7.10;99.90;;;;;;5054498;28;20025;-74
2022/04/20 06:13:24;;;;;;;19.38;9.93;;;7.10;99.90;;;;;;5054788;28;20017;-73
2022/04/20 06:15:49;;;;;;;16.88;9.70;;;7.10;99.90;;;;;;5036245;28;20025;-74
2022/04/20 06:18:15;;;;;;;19.08;9.43;;;7.20;99.90;;;;;;5055085;28;20535;-75
2022/04/20 06:20:41;;;;;;;21.60;9.15;;;7.30;99.90;;;;;;5054763;28;20475;-74
2022/04/20 06:23:06;;;;;;;15.32;9.30;;;7.40;99.90;;;;;;5055355;28;20032;-74
2022/04/20 06:25:32;;;;;;;18.40;9.23;;;7.60;99.90;;;;;;5054310;28;20395;-74
2022/04/20 06:27:57;;;;;;;17.00;8.32;;;7.70;99.90;;;;;;5054641;28;20025;-74
2022/04/20 06:30:23;;;;;;;13.48;8.30;;;7.80;99.90;;;;;;5054592;28;20029;-75
2022/04/20 06:32:48;;;;;;;19.80;9.40;;;7.90;99.90;;;;;;5054747;28;20095;-74
2022/04/20 06:35:14;;;;;;;17.08;8.95;;;8.00;99.90;;;;;;5054926;28;20520;-75
2022/04/20 06:37:39;;;;;;;17.85;8.00;;;8.20;99.90;;;;;;5054423;28;20021;-74
2022/04/20 06:40:05;;;;;;;15.50;9.15;;;8.30;99.90;;;;;;5054658;28;20029;-75
2022/04/20 06:42:31;;;;;;;16.15;9.00;;;8.40;99.90;;;;;;5054546;28;20069;-74
2022/04/20 06:44:56;;;;;;;15.70;8.82;;;8.60;99.90;;;;;;5054104;28;20057;-75
2022/04/20 06:47:22;;;;;;;16.48;7.85;;;8.70;99.90;;;;;;5036114;28;20363;-74
2022/04/20 06:49:47;;;;;;;16.88;8.45;;;8.80;99.90;;;;;;5054346;28;20029;-74
2022/04/20 07:00:28;;;;;;;14.18;8.13;;;9.00;99.90;;;;;;5054513;28;20032;-75
2022/04/20 07:03:01;;;;;;;15.02;7.60;;;9.20;99.90;;;;;;5035828;28;20156;-74
2022/04/20 07:05:26;;;;;;;12.32;7.78;;;9.40;99.90;;;;;;5054069;28;20390;-74
2022/04/20 07:07:52;;;;;;;12.07;8.25;;;9.40;99.90;;;;;;5054142;28;20021;-75
2022/04/20 07:10:18;;;;;;;17.77;8.23;;;9.60;99.90;;;;;;5054235;28;20017;-74
2022/04/20 07:12:43;;;;;;;17.88;7.80;;;9.70;99.90;;;;;;5054210;28;20013;-74
2022/04/20 07:15:09;;;;;;;16.60;8.40;;;9.80;99.90;;;;;;5058634;28;20029;-75
2022/04/20 07:17:34;;;;;;;13.88;7.50;;;9.90;99.90;;;;;;5040795;28;20020;-75
2022/04/20 07:20:01;;;;;;;14.82;7.43;;;9.90;99.90;;;;;;5059483;28;20025;-75
2022/04/20 07:22:27;;;;;;;12.15;7.65;;;10.00;99.90;;;;;;5059051;28;20060;-75
2022/04/20 07:24:52;;;;;;;11.60;6.82;;;10.10;99.90;;;;;;5059307;28;20055;-75
2022/04/20 07:27:18;;;;;;;12.95;5.88;;;10.10;99.90;;;;;;5058982;28;20393;-75
2022/04/20 07:29:43;;;;;;;13.88;6.53;;;10.20;99.90;;;;;;5058639;28;20028;-75
2022/04/20 07:32:09;;;;;;;10.98;6.07;;;10.10;99.90;;;;;;5057909;28;20021;-73
2022/04/20 07:34:34;;;;;;;9.73;6.50;;;10.10;99.90;;;;;;5058196;28;20021;-73
2022/04/20 07:37:00;;;;;;;10.93;5.93;;;10.00;99.90;;;;;;5058431;28;20436;-74
2022/04/20 07:39:25;;;;;;;12.98;7.07;;;10.00;99.90;;;;;;5058163;28;20497;-73
2022/04/20 07:41:51;;;;;;;8.90;5.72;;;10.00;99.90;;;;;;5057679;28;20025;-74
2022/04/20 07:44:16;;;;;;;15.07;6.38;;;10.00;99.90;;;;;;5058067;28;20063;-74
2022/04/20 07:46:42;;;;;;;10.50;5.65;;;10.00;99.90;;;;;;5057611;28;20064;-73
2022/04/20 07:51:56;;;;;;;14.48;7.43;;;9.90;99.90;;;;;;5029617;28;20079;-73
2022/04/20 07:54:22;;;;;;;9.50;5.60;;;9.90;99.90;;;;;;5057743;28;20025;-74
2022/04/20 07:56:47;;;;;;;10.02;5.30;;;10.10;99.90;;;;;;5039464;28;20479;-75
2022/04/20 07:59:13;;;;;;;10.75;5.85;;;10.30;99.90;;;;;;5057645;28;20029;-74
2022/04/20 08:01:38;;;;;;;16.13;5.93;;;10.50;99.90;;;;;;5067905;28;20082;-73
2022/04/20 08:04:05;;;;;;;8.80;6.47;;;10.60;99.90;;;;;;5066929;28;20032;-73
2022/04/20 08:06:31;;;;;;;11.60;6.50;;;10.70;99.90;;;;;;5064254;28;20013;-73
2022/04/20 08:08:56;;;;;;;9.43;5.85;;;10.80;99.90;;;;;;5062081;28;20025;-74
2022/04/20 08:11:22;;;;;;;12.55;6.03;;;10.90;99.90;;;;;;5059377;28;20467;-74
2022/04/20 08:16:32;;;;;;;9.75;6.28;;;11.20;99.90;;;;;;5057563;28;20031;-74
2022/04/20 08:18:58;;;;;;;12.38;6.43;;;11.20;99.90;;;;;;5057331;28;20021;-74
2022/04/20 08:21:23;;;;;;;12.20;6.80;;;11.10;99.90;;;;;;5039638;28;20070;-74
2022/04/20 08:23:49;;;;;;;10.32;6.03;;;11.20;99.90;;;;;;5038902;28;20041;-74
2022/04/20 08:26:14;;;;;;;12.63;6.63;;;11.20;99.90;;;;;;5057015;28;20028;-73
2022/04/20 08:28:40;;;;;;;9.25;6.45;;;11.30;99.90;;;;;;5057411;28;20051;-75
2022/04/20 08:31:05;;;;;;;12.20;7.20;;;11.40;99.90;;;;;;5038807;28;20031;-75
2022/04/20 08:33:32;;;;;;;9.57;6.47;;;11.50;99.90;;;;;;5056403;28;20070;-74
2022/04/20 08:35:58;;;;;;;8.40;6.32;;;11.60;99.90;;;;;;5056887;28;20017;-75
2022/04/20 08:38:23;;;;;;;13.10;6.30;;;11.70;99.90;;;;;;5057004;28;20033;-75
2022/04/20 08:40:52;;;;;;;10.10;5.88;;;11.90;99.90;;;;;;5056446;28;20584;-74
2022/04/20 08:43:19;;;;;;;10.77;6.07;;;12.10;99.90;;;;;;5080640;22;20037;-74
2022/04/20 08:45:48;;;;;;;9.73;6.07;;;12.10;99.90;;;;;;5058760;28;20024;-75
2022/04/20 08:48:14;;;;;;;10.35;6.15;;;12.10;99.90;;;;;;5040395;28;20040;-74
2022/04/20 08:50:40;;;;;;;11.45;5.60;;;12.10;99.90;;;;;;5040203;28;20029;-75
2022/04/20 08:53:06;;;;;;;8.75;5.57;;;12.30;99.90;;;;;;5057872;28;20055;-75
2022/04/20 08:55:31;;;;;;;11.85;6.50;;;12.40;99.90;;;;;;5040640;28;20359;-75
2022/04/20 08:57:57;;;;;;;14.30;6.00;;;12.50;99.90;;;;;;5057994;28;20031;-75
2022/04/20 09:00:26;;;;;;;13.80;5.80;;;12.70;99.90;;;;;;5057788;28;20072;-75
2022/04/20 09:02:57;;;;;;;9.57;5.35;;;12.80;99.90;;;;;;5057908;28;20081;-75
2022/04/20 09:05:25;;;;;;;7.78;5.53;;;13.00;99.90;;;;;;5057947;28;20029;-75
2022/04/20 09:07:50;;;;;;;9.52;5.43;;;13.20;99.90;;;;;;5057432;28;20025;-74
2022/04/20 09:10:16;;;;;;;6.82;4.53;;;13.40;99.90;;;;;;5058512;28;20021;-74
2022/04/20 09:12:43;;;;;;;9.25;4.93;;;13.50;99.90;;;;;;5041194;28;20112;-75
2022/04/20 09:15:11;;;;;;;14.88;5.57;;;13.60;99.90;;;;;;5040103;28;20079;-75
2022/04/20 09:17:42;;;;;;;7.63;4.22;;;13.70;99.90;;;;;;5058479;28;20059;-75
2022/04/20 09:20:09;;;;;;;;;;;13.80;99.90;;;;;;5057669;28;20021;-75
2022/04/20 09:22:35;;;;;;;5.53;4.10;;;14.00;99.90;;;;;;5059117;28;19912;-76
2022/04/20 09:25:14;;;;;;;9.07;4.88;;;14.00;99.90;;;;;;5058137;28;20025;-76
2022/04/20 09:27:42;;;;;;;8.60;4.22;;;14.10;99.90;;;;;;5058738;28;20043;-75
2022/04/20 09:30:13;;;;;;;12.88;4.60;;;14.20;99.90;;;;;;5058571;28;20094;-75
2022/04/20 09:32:40;;;;;;;7.18;4.47;;;14.30;99.30;;;;;;5058654;28;20017;-75
2022/04/20 09:35:09;;;;;;;6.70;4.82;;;14.20;98.80;;;;;;5059531;28;20108;-75
2022/04/20 09:37:36;;;;;;;7.55;4.35;;;14.20;98.80;;;;;;5059851;28;20100;-75
2022/04/20 09:40:05;;;;;;;7.22;4.10;;;14.10;98.90;;;;;;5046744;28;20028;-75
2022/04/20 09:42:34;;;;;;;9.57;4.30;;;14.10;99.40;;;;;;5047155;28;20032;-75
2022/04/20 09:45:04;;;;;;;4.95;3.55;;;14.20;99.90;;;;;;5042720;28;20125;-75
2022/04/20 09:50:27;;;;;;;8.07;3.88;;;14.30;97.20;;;;;;5059750;28;20397;-74
2022/04/20 09:52:59;;;;;;;8.25;4.28;;;14.30;96.60;;;;;;5043626;28;20028;-75
2022/04/20 09:55:31;;;;;;;7.28;3.83;;;14.30;97.20;;;;;;5062006;28;20021;-76
2022/04/20 09:58:09;;;;;;;8.52;3.95;;;14.40;96.70;;;;;;5062715;28;20025;-76
2022/04/20 10:00:44;;;;;;;10.07;3.80;;;14.40;96.30;;;;;;5065031;28;20062;-76
2022/04/20 10:03:10;;;;;;;5.18;3.60;;;14.40;97.00;;;;;;5069599;28;20049;-76
2022/04/20 10:05:37;;;;;;;6.55;4.10;;;14.60;96.20;;;;;;5064852;28;20528;-77
2022/04/20 10:08:03;;;;;;;8.15;4.05;;;14.70;95.80;;;;;;5065411;28;20183;-77
2022/04/20 10:10:35;;;;;;;6.63;3.72;;;14.80;95.80;;;;;;5064654;28;20024;-77
2022/04/20 10:13:03;;;;;;;6.15;3.83;;;14.90;95.50;;;;;;5061753;28;20065;-78
2022/04/20 10:18:22;;;;;;;7.00;3.70;;;14.90;94.40;;;;;;5041225;28;20031;-77
2022/04/20 10:20:50;;;;;;;8.48;5.10;;;14.80;94.60;;;;;;5055655;28;20451;-75
2022/04/20 10:23:19;;;;;;;8.13;3.92;;;14.90;94.80;;;;;;5037244;28;20091;-75
2022/04/20 10:25:46;;;;;;;5.22;3.60;;;14.90;94.40;;;;;;5047279;28;20024;-76
2022/04/20 10:28:33;;;;;;;5.53;3.60;;;14.90;94.00;;;;;;5054227;28;20025;-76
2022/04/20 10:31:19;;;;;;;6.38;3.40;;;14.90;93.30;;;;;;5056294;28;20057;-76
2022/04/20 10:33:46;;;;;;;4.50;3.00;;;15.00;92.70;;;;;;5056683;28;20532;-76
2022/04/20 10:36:18;;;;;;;6.82;2.80;;;15.20;92.30;;;;;;5048308;28;20029;-76
2022/04/20 10:38:46;;;;;;;2.75;2.40;;;15.40;90.70;;;;;;5039503;28;20112;-75
2022/04/20 10:41:13;;;;;;;2.83;2.50;;;15.50;89.00;;;;;;5024002;28;20029;-75
2022/04/20 10:43:42;;;;;;;8.85;2.63;;;15.60;87.40;;;;;;5054206;28;20029;-76
2022/04/20 10:46:18;;;;;;;4.40;2.25;;;15.60;83.70;;;;;;5050199;28;20055;-76
2022/04/20 10:49:16;;;;;;;5.82;2.65;;;15.50;84.00;;;;;;5035679;28;20030;-76
2022/04/20 10:51:43;;;;;;;5.32;2.45;;;15.40;84.10;;;;;;5027533;28;20048;-76
2022/04/20 10:54:29;;;;;;;3.42;2.50;;;15.60;83.60;;;;;;5039918;28;20021;-75
2022/04/20 10:57:01;;;;;;;3.95;2.95;;;15.60;83.60;;;;;;5054184;28;20394;-76
2022/04/20 10:59:28;;;;;;;5.72;2.22;;;15.50;84.30;;;;;;5038580;28;20029;-76
2022/04/20 11:02:03;;;;;;;4.65;2.20;;;15.60;84.70;;;;;;5055769;28;20500;-78
2022/04/20 11:04:39;;;;;;;3.15;2.30;;;15.60;82.30;;;;;;5054162;28;20041;-76
2022/04/20 11:07:06;;;;;;;7.45;2.17;;;15.80;83.20;;;;;;5054778;28;20009;-76
2022/04/20 11:09:45;;;;;;;6.20;2.35;;;15.80;81.30;;;;;;5046874;28;20017;-76
2022/04/20 11:21:07;;;;;;;5.05;1.95;;;15.80;80.50;;;;;;5056847;28;20040;-77
2022/04/20 11:23:57;;;;;;;2.25;2.05;;;16.00;80.20;;;;;;5057321;28;20060;-77
2022/04/20 11:26:26;;;;;;;7.32;2.67;;;16.20;79.20;;;;;;5057018;28;20047;-77
2022/04/20 11:28:52;;;;;;;4.05;1.83;;;16.30;77.60;;;;;;5057034;28;20028;-77
2022/04/20 11:31:18;;;;;;;1.75;1.65;;;16.40;77.20;;;;;;5072966;28;20371;-77
2022/04/20 11:33:47;;;;;;;3.03;1.75;;;16.30;72.10;;;;;;5056256;28;20029;-76
2022/04/20 11:36:14;;;;;;;4.65;2.55;;;16.20;73.10;;;;;;5056937;28;20085;-77
2022/04/20 11:38:44;;;;;;;3.90;2.20;;;16.10;75.00;;;;;;5056938;28;20021;-77
2022/04/20 11:41:15;;;;;;;5.28;2.45;;;16.20;74.20;;;;;;5038969;28;20021;-76
2022/04/20 11:43:41;;;;;;;3.40;1.70;;;16.30;73.10;;;;;;5054324;28;20098;-76
2022/04/20 11:46:08;;;;;;;2.00;1.63;;;16.40;71.50;;;;;;5055508;28;20025;-77
2022/04/20 11:48:51;;;;;;;2.38;2.00;;;16.50;72.30;;;;;;5038159;28;20025;-77
2022/04/20 11:51:21;;;;;;;2.92;1.98;;;16.60;72.50;;;;;;5044288;28;20086;-76
2022/04/20 11:53:48;;;;;;;5.40;2.40;;;16.80;72.30;;;;;;5046423;28;20029;-76
2022/04/20 11:56:15;;;;;;;3.33;2.53;;;16.80;72.60;;;;;;5055809;28;20266;-76
2022/04/20 11:58:48;;;;;;;4.32;2.30;;;16.70;72.40;;;;;;5066730;28;20085;-76
2022/04/20 12:01:15;;;;;;;2.50;2.00;;;16.70;72.10;;;;;;5034923;28;20028;-76
2022/04/20 12:03:42;;;;;;;3.50;2.33;;;16.80;72.70;;;;;;5050414;28;20029;-76
2022/04/20 12:06:12;;;;;;;4.28;1.90;;;16.80;71.00;;;;;;5042403;28;20421;-76
2022/04/20 12:08:42;;;;;;;3.00;2.03;;;16.70;71.80;;;;;;5057693;28;20013;-76
2022/04/20 12:11:11;;;;;;;6.90;2.05;;;16.90;71.70;;;;;;5049689;28;20025;-76
2022/04/20 12:13:39;;;;;;;3.80;2.10;;;17.00;70.40;;;;;;5053857;28;20082;-77
2022/04/20 12:16:08;;;;;;;2.05;1.85;;;17.00;69.20;;;;;;5057290;28;20171;-76
2022/04/20 12:18:42;;;;;;;4.68;2.20;;;17.10;68.60;;;;;;5040839;28;20025;-76
2022/04/20 12:21:37;;;;;;;2.47;1.90;;;17.10;69.40;;;;;;5052434;28;20075;-77
2022/04/20 12:24:03;;;;;;;4.13;2.30;;;17.30;69.70;;;;;;5036518;28;20029;-76
2022/04/20 12:26:30;;;;;;;3.53;2.17;;;17.40;69.30;;;;;;5040176;28;20032;-76
2022/04/20 12:29:00;;;;;;;3.75;1.95;;;17.50;68.10;;;;;;5039082;28;20096;-76
2022/04/20 12:31:26;;;;;;;3.75;2.58;;;17.60;68.60;;;;;;5038810;28;20029;-75
2022/04/20 12:34:03;;;;;;;7.30;2.75;;;17.60;67.60;;;;;;5056218;28;20025;-76
2022/04/20 12:36:31;;;;;;;6.15;2.38;;;17.50;68.00;;;;;;5056000;28;20124;-77
2022/04/20 12:38:57;;;;;;;2.65;2.17;;;17.30;67.70;;;;;;5058798;28;20028;-77
2022/04/20 12:41:47;;;;;;;4.53;3.00;;;17.20;67.90;;;;;;5058566;28;20104;-76
2022/04/20 12:44:31;;;;;;;4.15;2.63;;;17.20;69.20;;;;;;5037944;28;20114;-77
2022/04/20 12:46:57;;;;;;;4.68;2.92;;;17.30;70.10;;;;;;5039282;28;20021;-76
2022/04/20 12:49:25;;;;;;;3.50;3.08;;;17.40;69.20;;;;;;5058523;28;20013;-76
2022/04/20 12:51:51;;;;;;;6.43;2.95;;;17.30;69.60;;;;;;5055123;28;20382;-77
2022/04/20 12:54:26;;;;;;;8.90;3.33;;;17.30;70.50;;;;;;5061130;28;20064;-77
2022/04/20 13:02:20;;;;;;;5.68;3.20;;;17.20;69.50;;;;;;5041704;28;20032;-76
2022/04/20 13:04:49;;;;;;;4.50;2.70;;;17.20;70.40;;;;;;5039642;28;20033;-77
2022/04/20 13:07:15;;;;;;;7.70;3.70;;;17.20;69.50;;;;;;5043713;28;20030;-76
2022/04/20 13:09:40;;;;;;;5.78;3.42;;;17.20;69.50;;;;;;5045998;28;20045;-76
2022/04/20 13:12:07;;;;;;;4.97;3.20;;;17.10;69.40;;;;;;5025780;28;20028;-76
2022/04/20 13:14:32;;;;;;;4.18;3.13;;;17.20;69.50;;;;;;5050559;28;20131;-76
2022/04/20 13:16:58;;;;;;;6.68;3.58;;;17.30;70.10;;;;;;5060278;28;20021;-76
2022/04/20 13:19:23;;;;;;;4.57;3.17;;;17.40;68.80;;;;;;5059498;28;20021;-76
2022/04/20 13:21:49;;;;;;;3.00;2.70;;;17.30;68.40;;;;;;5038393;28;20021;-75
2022/04/20 13:27:54;;;;;;;4.65;3.30;;;17.20;67.10;;;;;;5053576;28;20021;-76
2022/04/20 13:29:47;;;;;;;5.65;3.17;;;17.00;67.80;;;;;;5054051;28;20051;-76
2022/04/20 13:32:14;;;;;;;5.40;3.55;;;16.90;68.10;;;;;;5058873;28;20463;-76
2022/04/20 13:34:41;;;;;;;7.90;3.33;;;16.90;68.70;;;;;;5058361;28;20025;-76